Pagrindinis puslapis
METAR-TAF:

METAR-TAF

Oro uostai :

Tirupati, Indija

platuma: 13-38-16N, ilguma: 79-32-50E, Aukštis: 107 m

Dabartinis oras

Ataskaita buvo paskelbta 5 valandos ir 42 minutes, ne 15:30 UTC
Vėjas 6 kt iš Vakarų/Pietvakarių
Temperatūra 28°C
Drėgmė 74%
Slėgis 1006 hPa
Matomumas: 6000 m
Mažai debesys ne aukštis 2000 ft
Išsisklaidę debesys ne aukštis 10000 ft

METAR: VOTP 171530Z 24006KT 6000 FEW020 SCT100 28/23 Q1006

Laikas: 02:42 (21:12 UTC)

Prognozė

Ataskaita buvo paskelbta 13 valandos ir 12 minutes, ne 08:00 UTC
Prognozė galioja nuo 17 metu 09 UTC su 17 metu 18 UTC
Vėjas 8 kt iš Vakarų/Šiaurės Vakarų
Matomumas: 5000 m
Išsisklaidę debesys ne aukštis 1500 ft
Išsisklaidę debesys ne aukštis 2500 ft
Su prošvaistėmis ne aukštis 8000 ft
migla
Laikinai
nuo 17 metu 09 UTC su 17 metu 18 UTC
Matomumas: 3000 m
Mažai debesys ne aukštis 3000 ft, Liūtiniai kamuoliniai debesys.
Apsiniaukę ne aukštis 8000 ft
perkūnija, lietus, lietus

TAF: VOTP 170800Z 1709/1718 30008KT 5000 HZ SCT015 SCT025 BKN080 TEMPO 1709/1718 3000 TSRA RA FEW030CB OVC080

Orai ataskaitas ir orų prognozės (METAR, TAF).

turimą stotys yra geltonos ir raudonos taškus žemėlapyje.

Perkelti pele per norėdami pamatyti stoties vardą.

Tada spustelėkite, norėdami matyti oro stebėjimo ir prognozės.

Norėdami pakeisti žemėlapį: spustelėkite ant žalios mygtukų su juodo kryžiaus žemyn,; žalią mygtuką su brūkšneliu, jei norite nutolinti; arba žalių rodyklių gretimoms žemėlapius.


METAR-TAF: